Terminal Aerodrome Forecast
Issued by NWS

Current Version | Previous Version | Graphics & Text | Print | Product List | Glossary On
Versions: 1 2 3 4 5 6 7 8 9 10 11 12 13 14 15 16 17 18 19 20
000
FTUS41 KPBZ 272320
TAFHLG
TAF
KHLG 272320Z 2800/2824 01005KT P6SM SKC
     FM281000 00000KT 2SM BR SKC
     FM281400 10005KT P6SM BKN035=

USA.gov is the U.S. government's official web portal to all federal, state and local government web resources and services.